createdAt,value
2023-05-24T00:00:36.102Z,1.77
2023-05-24T00:03:07.151Z,1.47
2023-05-24T00:05:37.743Z,1.43
2023-05-24T00:08:05.994Z,1.30
2023-05-24T00:10:33.961Z,1.60
2023-05-24T00:13:02.076Z,1.30
2023-05-24T00:15:30.016Z,1.40
2023-05-24T00:17:59.494Z,1.50
2023-05-24T00:20:27.729Z,1.60
2023-05-24T00:22:55.777Z,1.70
2023-05-24T00:25:23.746Z,1.77
2023-05-24T00:27:51.983Z,1.77
2023-05-24T00:30:19.952Z,1.87
2023-05-24T00:32:49.101Z,1.47
2023-05-24T00:35:18.819Z,1.60
2023-05-24T00:37:48.261Z,1.60
2023-05-24T00:40:17.275Z,1.40
2023-05-24T00:42:45.431Z,1.23
2023-05-24T00:45:13.772Z,1.60
2023-05-24T00:47:42.919Z,1.37
2023-05-24T00:50:13.020Z,1.67
2023-05-24T00:52:44.146Z,1.60
2023-05-24T00:55:13.280Z,1.47
2023-05-24T00:57:41.964Z,1.03
2023-05-24T01:00:12.562Z,1.60
2023-05-24T01:02:40.955Z,1.40
2023-05-24T01:05:13.597Z,1.40
2023-05-24T01:07:52.680Z,1.30
2023-05-24T01:10:27.871Z,1.60
2023-05-24T01:13:02.785Z,1.43
2023-05-24T01:15:37.684Z,1.43
2023-05-24T01:18:12.631Z,1.57
2023-05-24T01:20:41.964Z,1.80
2023-05-24T01:23:31.115Z,1.43
2023-05-24T01:26:17.531Z,1.20
2023-05-24T01:28:49.779Z,1.60
2023-05-24T01:31:19.969Z,1.40
2023-05-24T01:33:50.820Z,1.40
2023-05-24T01:36:20.986Z,1.30
2023-05-24T01:38:51.932Z,1.10
2023-05-24T01:41:34.946Z,1.50
2023-05-24T01:44:11.249Z,1.53
2023-05-24T01:46:40.262Z,1.00
2023-05-24T01:49:19.101Z,1.00
2023-05-24T01:51:52.417Z,1.27
2023-05-24T01:54:25.102Z,1.30
2023-05-24T01:56:55.161Z,1.43
2023-05-24T01:59:26.688Z,1.00
2023-05-24T02:01:54.995Z,1.20
2023-05-24T02:04:23.211Z,1.47
2023-05-24T02:06:51.458Z,1.47
2023-05-24T02:09:19.533Z,1.73
2023-05-24T02:11:47.923Z,1.40
2023-05-24T02:14:17.239Z,1.10
2023-05-24T02:16:47.023Z,1.50
2023-05-24T02:19:15.560Z,0.97
2023-05-24T02:21:43.751Z,1.63
2023-05-24T02:24:12.696Z,1.60
2023-05-24T02:26:40.780Z,1.30
2023-05-24T02:29:08.846Z,1.23
2023-05-24T02:31:37.228Z,1.17
2023-05-24T02:34:06.507Z,1.30
2023-05-24T02:36:36.392Z,1.10
2023-05-24T02:39:04.969Z,1.60
2023-05-24T02:41:33.256Z,1.10
2023-05-24T02:44:01.192Z,1.17
2023-05-24T02:46:29.450Z,1.10
2023-05-24T02:48:57.375Z,1.17
2023-05-24T02:51:26.793Z,2.00
2023-05-24T02:53:54.805Z,1.10
2023-05-24T02:56:23.761Z,1.20
2023-05-24T02:58:54.128Z,1.10
2023-05-24T03:01:23.337Z,1.20
2023-05-24T03:03:53.903Z,1.30
2023-05-24T03:06:22.347Z,1.00
2023-05-24T03:08:51.764Z,1.30
2023-05-24T03:11:22.531Z,1.30
2023-05-24T03:13:51.310Z,1.13
2023-05-24T03:16:19.981Z,1.40
2023-05-24T03:18:50.545Z,1.20
2023-05-24T03:21:20.705Z,1.30
2023-05-24T03:23:49.025Z,1.30
2023-05-24T03:26:18.791Z,1.50
2023-05-24T03:28:47.521Z,1.50
2023-05-24T03:31:16.767Z,1.27
2023-05-24T03:33:45.026Z,1.20
2023-05-24T03:36:13.290Z,1.50
2023-05-24T03:38:41.254Z,1.33
2023-05-24T03:41:09.633Z,1.37
2023-05-24T03:43:39.239Z,1.07
2023-05-24T03:46:15.490Z,1.23
2023-05-24T03:48:43.710Z,1.47
2023-05-24T03:51:11.777Z,1.10
2023-05-24T03:53:39.730Z,1.67
2023-05-24T03:56:07.976Z,2.10
2023-05-24T03:58:35.961Z,1.50
2023-05-24T04:01:05.347Z,1.80
2023-05-24T04:03:34.388Z,1.60
2023-05-24T04:06:02.454Z,1.37
2023-05-24T04:08:31.997Z,1.53
2023-05-24T04:10:59.964Z,1.57
2023-05-24T04:13:28.114Z,1.60
2023-05-24T04:15:56.008Z,1.60
2023-05-24T04:18:25.760Z,1.43
2023-05-24T04:20:56.093Z,1.50
2023-05-24T04:23:24.680Z,1.53
2023-05-24T04:25:52.795Z,1.40
2023-05-24T04:28:22.118Z,1.73
2023-05-24T04:30:50.265Z,1.90
2023-05-24T04:33:19.529Z,1.73
2023-05-24T04:35:49.388Z,1.80
2023-05-24T04:38:17.692Z,1.70
2023-05-24T04:40:45.681Z,1.93
2023-05-24T04:43:14.667Z,2.00
2023-05-24T04:45:42.816Z,1.60
2023-05-24T04:48:11.291Z,1.70
2023-05-24T04:50:39.272Z,2.03
2023-05-24T04:53:08.759Z,1.83
2023-05-24T04:55:36.849Z,1.63
2023-05-24T04:58:04.947Z,1.70
2023-05-24T05:00:32.888Z,1.60
2023-05-24T05:03:01.204Z,1.70
2023-05-24T05:05:29.283Z,1.53
2023-05-24T05:07:57.485Z,1.93
2023-05-24T05:10:27.131Z,1.50
2023-05-24T05:12:55.543Z,2.20
2023-05-24T05:15:25.090Z,1.43
2023-05-24T05:17:53.166Z,2.27
2023-05-24T05:20:21.286Z,1.97
2023-05-24T05:22:49.528Z,1.67
2023-05-24T05:25:17.895Z,1.80
2023-05-24T05:27:47.475Z,1.53
2023-05-24T05:30:15.956Z,2.10
2023-05-24T05:32:44.368Z,1.70
2023-05-24T05:35:12.354Z,1.90
2023-05-24T05:37:40.590Z,1.40
2023-05-24T05:40:09.256Z,1.70
2023-05-24T05:42:37.199Z,2.07
2023-05-24T05:45:07.794Z,2.47
2023-05-24T05:47:35.976Z,1.80
2023-05-24T05:50:04.009Z,1.80
2023-05-24T05:52:31.880Z,2.07
2023-05-24T05:55:00.381Z,1.50
2023-05-24T05:57:28.412Z,1.43
2023-05-24T05:59:56.544Z,1.80
2023-05-24T06:02:25.970Z,2.00
2023-05-24T06:04:54.346Z,1.73
2023-05-24T06:07:22.352Z,1.90
2023-05-24T06:09:50.553Z,2.10
2023-05-24T06:12:18.515Z,1.80
2023-05-24T06:14:48.462Z,1.83
2023-05-24T06:17:16.599Z,2.40
2023-05-24T06:19:46.325Z,1.73
2023-05-24T06:22:14.596Z,1.70
2023-05-24T06:24:43.789Z,1.70
2023-05-24T06:27:11.795Z,3.03
2023-05-24T06:29:40.183Z,1.77
2023-05-24T06:32:08.222Z,2.53
2023-05-24T06:34:36.661Z,1.83
2023-05-24T06:37:06.167Z,1.90
2023-05-24T06:39:34.121Z,2.27
2023-05-24T06:42:02.312Z,1.90
2023-05-24T06:44:37.319Z,2.00
2023-05-24T06:47:06.032Z,2.70
2023-05-24T06:49:34.551Z,2.17
2023-05-24T06:52:02.611Z,2.03
2023-05-24T06:54:32.135Z,1.93
2023-05-24T06:57:00.144Z,2.00
2023-05-24T06:59:28.406Z,2.20
2023-05-24T07:01:58.915Z,2.63
2023-05-24T07:04:28.438Z,2.47
2023-05-24T07:06:57.164Z,2.73
2023-05-24T07:09:25.156Z,2.60
2023-05-24T07:11:54.624Z,2.47
2023-05-24T07:14:23.156Z,3.33
2023-05-24T07:16:51.382Z,3.10
2023-05-24T07:19:21.347Z,2.83
2023-05-24T07:21:50.502Z,2.43
2023-05-24T07:24:18.754Z,2.60
2023-05-24T07:26:47.274Z,2.73
2023-05-24T07:29:16.793Z,3.13
2023-05-24T07:31:44.834Z,3.30
2023-05-24T07:34:12.835Z,3.20
2023-05-24T07:36:41.124Z,3.00
2023-05-24T07:39:10.049Z,2.83
2023-05-24T07:41:38.261Z,2.73
2023-05-24T07:44:06.351Z,2.90
2023-05-24T07:46:35.924Z,3.20
2023-05-24T07:49:03.785Z,3.00
2023-05-24T07:51:32.542Z,2.90
2023-05-24T07:54:00.936Z,2.80
2023-05-24T07:56:29.191Z,2.90
2023-05-24T07:59:03.548Z,2.87
2023-05-24T08:01:32.108Z,2.57
2023-05-24T08:04:01.707Z,2.80
2023-05-24T08:06:29.751Z,3.57
2023-05-24T08:08:58.033Z,2.90
2023-05-24T08:11:26.610Z,3.10
2023-05-24T08:13:54.690Z,3.23
2023-05-24T08:16:22.913Z,3.07
2023-05-24T08:18:52.595Z,3.00
2023-05-24T08:21:24.313Z,2.90
2023-05-24T08:23:52.362Z,3.60
2023-05-24T08:26:21.092Z,2.80
2023-05-24T08:28:49.093Z,2.73
2023-05-24T08:31:18.028Z,2.30
2023-05-24T08:33:50.223Z,2.23
2023-05-24T08:36:18.588Z,2.80
2023-05-24T08:38:47.884Z,2.63
2023-05-24T08:41:15.929Z,2.53
2023-05-24T08:43:44.646Z,3.27
2023-05-24T08:46:15.338Z,2.07
2023-05-24T08:48:47.348Z,2.47
2023-05-24T08:51:16.439Z,2.73
2023-05-24T08:53:50.078Z,2.60
2023-05-24T08:56:19.198Z,2.83
2023-05-24T08:58:47.664Z,2.73
2023-05-24T09:01:17.792Z,2.57
2023-05-24T09:03:48.044Z,2.00
2023-05-24T09:06:18.927Z,2.80
2023-05-24T09:08:52.335Z,3.00
2023-05-24T09:11:22.882Z,2.40
2023-05-24T09:13:50.940Z,2.37
2023-05-24T09:16:19.237Z,2.50
2023-05-24T09:18:47.358Z,2.13
2023-05-24T09:21:15.668Z,2.20
2023-05-24T09:23:44.039Z,2.43
2023-05-24T09:26:14.121Z,2.27
2023-05-24T09:28:44.337Z,2.87
2023-05-24T09:31:13.766Z,1.87
2023-05-24T09:33:41.787Z,2.10
2023-05-24T09:36:10.572Z,2.73
2023-05-24T09:38:38.612Z,2.60
2023-05-24T09:41:08.446Z,2.60
2023-05-24T09:43:49.423Z,2.03
2023-05-24T09:46:18.696Z,2.33
2023-05-24T09:48:57.537Z,2.13
2023-05-24T09:51:26.008Z,2.60
2023-05-24T09:53:58.477Z,2.47
2023-05-24T09:56:27.554Z,2.60
2023-05-24T09:58:58.178Z,2.50
2023-05-24T10:01:26.939Z,2.33
2023-05-24T10:03:56.499Z,2.20
2023-05-24T10:06:25.607Z,2.63
2023-05-24T10:08:54.799Z,2.33
2023-05-24T10:11:22.911Z,2.20
2023-05-24T10:13:51.106Z,3.00
2023-05-24T10:16:20.431Z,2.87
2023-05-24T10:18:48.592Z,2.50
2023-05-24T10:21:17.029Z,2.73
2023-05-24T10:23:49.957Z,1.93
2023-05-24T10:26:18.778Z,2.73
2023-05-24T10:28:53.021Z,2.50
2023-05-24T10:31:26.574Z,2.83
2023-05-24T10:34:06.568Z,2.63
2023-05-24T10:36:36.837Z,2.43
2023-05-24T10:39:06.063Z,2.30
2023-05-24T10:41:40.866Z,3.00
2023-05-24T10:44:13.114Z,2.13
2023-05-24T10:47:08.265Z,3.07
2023-05-24T10:49:36.810Z,2.40
2023-05-24T10:52:09.332Z,2.73
2023-05-24T10:54:39.802Z,1.93
2023-05-24T10:57:10.961Z,2.60
2023-05-24T10:59:40.233Z,2.70
2023-05-24T11:02:14.034Z,2.50
2023-05-24T11:04:44.427Z,2.10
2023-05-24T11:07:15.430Z,1.97
2023-05-24T11:09:47.084Z,2.63
2023-05-24T11:12:18.444Z,2.43
2023-05-24T11:14:50.337Z,2.60
2023-05-24T11:17:21.510Z,2.20
2023-05-24T11:19:52.860Z,3.15
2023-05-24T11:22:22.881Z,3.30
2023-05-24T11:24:52.966Z,3.57
2023-05-24T11:27:21.632Z,3.63
2023-05-24T11:29:49.983Z,2.73
2023-05-24T11:32:21.070Z,2.40
2023-05-24T11:34:49.790Z,2.60
2023-05-24T11:37:18.830Z,3.17
2023-05-24T11:39:53.074Z,2.47
2023-05-24T11:42:22.857Z,2.50
2023-05-24T11:44:51.435Z,3.30
2023-05-24T11:47:22.434Z,3.00
2023-05-24T11:49:51.913Z,3.17
2023-05-24T11:52:19.903Z,3.10
2023-05-24T11:54:48.034Z,3.27
2023-05-24T11:57:16.796Z,3.00
2023-05-24T11:59:47.255Z,2.73
2023-05-24T12:02:15.921Z,2.70
2023-05-24T12:04:46.151Z,2.87
2023-05-24T12:07:14.296Z,2.67
2023-05-24T12:09:42.346Z,2.63
2023-05-24T12:12:10.927Z,2.50
2023-05-24T12:14:41.056Z,2.73
2023-05-24T12:17:16.996Z,2.50
2023-05-24T12:19:49.631Z,2.63
2023-05-24T12:22:17.720Z,3.40
2023-05-24T12:24:45.763Z,3.10
2023-05-24T12:27:13.801Z,2.60
2023-05-24T12:29:42.626Z,2.37
2023-05-24T12:32:13.999Z,2.43
2023-05-24T12:34:43.458Z,3.33
2023-05-24T12:37:14.196Z,3.00
2023-05-24T12:39:44.162Z,2.90
2023-05-24T12:42:14.250Z,2.30
2023-05-24T12:44:44.879Z,3.40
2023-05-24T12:47:14.093Z,2.60
2023-05-24T12:49:43.373Z,3.13
2023-05-24T12:52:13.510Z,6.07
2023-05-24T12:54:41.606Z,4.33
2023-05-24T12:57:09.569Z,3.77
2023-05-24T12:59:37.664Z,2.67
2023-05-24T13:02:05.791Z,2.97
2023-05-24T13:04:35.971Z,2.43
2023-05-24T13:07:04.213Z,2.10
2023-05-24T13:09:34.230Z,2.20
2023-05-24T13:12:02.942Z,2.00
2023-05-24T13:14:31.011Z,2.53
2023-05-24T13:16:59.282Z,2.33
2023-05-24T13:19:27.265Z,2.67
2023-05-24T13:21:55.563Z,2.20
2023-05-24T13:24:23.479Z,2.90
2023-05-24T13:26:54.925Z,2.60
2023-05-24T13:31:54.543Z,2.30
2023-05-24T13:34:23.217Z,2.30
2023-05-24T13:36:51.507Z,2.03
2023-05-24T13:39:19.706Z,2.33
2023-05-24T13:41:48.303Z,2.50
2023-05-24T13:44:17.927Z,2.60
2023-05-24T13:46:46.215Z,2.40
2023-05-24T13:49:14.456Z,2.37
2023-05-24T13:51:42.508Z,2.40
2023-05-24T13:54:11.521Z,3.17
2023-05-24T13:56:40.219Z,2.27
2023-05-24T13:59:08.479Z,2.80
2023-05-24T14:01:38.679Z,2.47
2023-05-24T14:04:07.826Z,2.37
2023-05-24T14:06:37.469Z,2.20
2023-05-24T14:09:06.959Z,2.07
2023-05-24T14:11:35.134Z,2.73
2023-05-24T14:16:35.117Z,2.60
2023-05-24T14:19:04.504Z,2.77
2023-05-24T14:21:32.894Z,2.03
2023-05-24T14:24:01.352Z,3.07
2023-05-24T14:26:29.350Z,2.47
2023-05-24T14:28:57.554Z,2.27
2023-05-24T14:31:25.682Z,2.40
2023-05-24T14:33:53.738Z,2.40
2023-05-24T14:36:23.066Z,2.27
2023-05-24T14:38:51.776Z,2.43
2023-05-24T14:41:19.742Z,2.30
2023-05-24T14:43:47.701Z,2.30
2023-05-24T14:46:15.973Z,2.73
2023-05-24T14:48:44.078Z,2.70
2023-05-24T14:51:12.066Z,3.00
2023-05-24T14:53:41.435Z,2.33
2023-05-24T14:56:10.150Z,3.20
2023-05-24T14:58:38.277Z,2.97
2023-05-24T15:01:08.228Z,2.10
2023-05-24T15:03:36.701Z,2.03
2023-05-24T15:06:06.223Z,3.13
2023-05-24T15:08:35.201Z,2.40
2023-05-24T15:11:05.134Z,1.80
2023-05-24T15:13:33.690Z,2.10
2023-05-24T15:16:01.717Z,2.10
2023-05-24T15:18:32.112Z,2.27
2023-05-24T15:21:00.880Z,1.93
2023-05-24T15:23:29.039Z,2.00
2023-05-24T15:25:57.151Z,2.20
2023-05-24T15:28:27.167Z,2.13
2023-05-24T15:30:55.931Z,2.00
2023-05-24T15:33:23.990Z,2.40
2023-05-24T15:35:52.256Z,2.10
2023-05-24T15:38:20.776Z,2.00
2023-05-24T15:40:48.765Z,1.97
2023-05-24T15:43:18.794Z,2.30
2023-05-24T15:45:48.606Z,2.07
2023-05-24T15:48:16.940Z,2.00
2023-05-24T15:51:16.497Z,2.80
2023-05-24T15:53:33.604Z,2.60
2023-05-24T15:56:01.776Z,2.10
2023-05-24T15:58:29.872Z,1.90
2023-05-24T16:00:59.377Z,2.33
2023-05-24T16:03:27.563Z,2.07
2023-05-24T16:05:55.969Z,2.40
2023-05-24T16:08:27.665Z,2.40
2023-05-24T16:10:56.265Z,2.20
2023-05-24T16:13:24.260Z,2.13
2023-05-24T16:15:52.547Z,2.10
2023-05-24T16:18:23.206Z,2.10
2023-05-24T16:20:52.453Z,1.93
2023-05-24T16:23:23.189Z,1.60
2023-05-24T16:25:51.698Z,2.13
2023-05-24T16:28:23.650Z,2.00
2023-05-24T16:30:55.474Z,2.00
2023-05-24T16:33:25.330Z,1.90
2023-05-24T16:35:56.173Z,1.83
2023-05-24T16:38:24.789Z,2.07
2023-05-24T16:40:53.032Z,2.13
2023-05-24T16:43:21.465Z,2.27
2023-05-24T16:45:49.954Z,2.27
2023-05-24T16:48:21.114Z,2.00
2023-05-24T16:50:54.079Z,2.00
2023-05-24T16:53:23.166Z,1.60
2023-05-24T16:55:53.825Z,1.80
2023-05-24T16:58:22.279Z,1.73
2023-05-24T17:00:50.995Z,2.03
2023-05-24T17:03:21.907Z,1.73
2023-05-24T17:05:53.291Z,2.20
2023-05-24T17:08:21.841Z,2.00
2023-05-24T17:10:56.029Z,2.17
2023-05-24T17:13:24.489Z,1.97
2023-05-24T17:15:53.641Z,1.80
2023-05-24T17:18:28.027Z,2.00
2023-05-24T17:20:58.382Z,2.10
2023-05-24T17:23:26.866Z,2.03
2023-05-24T17:25:55.540Z,2.10
2023-05-24T17:28:27.525Z,2.20
2023-05-24T17:30:55.969Z,1.97
2023-05-24T17:33:24.872Z,1.70
2023-05-24T17:35:53.749Z,1.70
2023-05-24T17:38:24.236Z,1.80
2023-05-24T17:40:57.190Z,1.80
2023-05-24T17:43:29.042Z,2.10
2023-05-24T17:46:03.050Z,1.83
2023-05-24T17:48:32.236Z,1.87
2023-05-24T17:51:00.791Z,1.90
2023-05-24T17:53:32.298Z,2.00
2023-05-24T17:56:00.788Z,1.63
2023-05-24T17:58:30.686Z,1.80
2023-05-24T18:00:59.006Z,1.60
2023-05-24T18:03:26.993Z,1.60
2023-05-24T18:05:55.058Z,1.90
2023-05-24T18:08:23.097Z,2.03
2023-05-24T18:10:52.640Z,2.77
2023-05-24T18:13:20.572Z,2.00
2023-05-24T18:15:48.873Z,1.70
2023-05-24T18:18:17.407Z,2.17
2023-05-24T18:20:45.475Z,2.00
2023-05-24T18:23:13.600Z,2.60
2023-05-24T18:25:43.643Z,2.30
2023-05-24T18:28:13.651Z,2.60
2023-05-24T18:30:43.674Z,2.83
2023-05-24T18:33:12.277Z,2.47
2023-05-24T18:35:40.377Z,2.17
2023-05-24T18:38:08.424Z,2.30
2023-05-24T18:40:38.313Z,2.37
2023-05-24T18:43:06.324Z,1.67
2023-05-24T18:45:35.769Z,1.93
2023-05-24T18:48:03.813Z,1.93
2023-05-24T18:50:31.975Z,2.00
2023-05-24T18:53:00.036Z,2.30
2023-05-24T18:55:28.139Z,2.13
2023-05-24T18:57:56.198Z,2.30
2023-05-24T19:00:24.735Z,3.50
2023-05-24T19:02:55.385Z,3.07
2023-05-24T19:05:23.574Z,2.47
2023-05-24T19:07:51.860Z,2.50
2023-05-24T19:10:19.833Z,2.10
2023-05-24T19:12:47.753Z,2.20
2023-05-24T19:15:15.997Z,2.17
2023-05-24T19:17:44.117Z,2.10
2023-05-24T19:20:13.751Z,2.57
2023-05-24T19:22:42.027Z,2.77
2023-05-24T19:25:10.623Z,2.27
2023-05-24T19:27:44.778Z,2.73
2023-05-24T19:30:23.195Z,1.97
2023-05-24T19:32:51.158Z,2.53
2023-05-24T19:35:21.411Z,2.90
2023-05-24T19:37:49.435Z,2.80
2023-05-24T19:40:17.670Z,2.93
2023-05-24T19:42:45.648Z,2.37
2023-05-24T19:45:14.265Z,2.13
2023-05-24T19:47:42.330Z,2.70
2023-05-24T19:50:11.472Z,2.20
2023-05-24T19:52:40.961Z,2.10
2023-05-24T19:55:10.527Z,2.00
2023-05-24T19:57:38.779Z,2.20
2023-05-24T20:00:08.110Z,1.97
2023-05-24T20:02:42.085Z,2.23
2023-05-24T20:05:11.248Z,2.20
2023-05-24T20:07:40.612Z,1.93
2023-05-24T20:10:09.922Z,1.90
2023-05-24T20:12:37.933Z,2.00
2023-05-24T20:15:09.671Z,2.47
2023-05-24T20:17:37.717Z,2.13
2023-05-24T20:20:07.086Z,2.13
2023-05-24T20:22:35.201Z,2.03
2023-05-24T20:25:05.042Z,2.10
2023-05-24T20:27:32.949Z,2.50
2023-05-24T20:30:01.169Z,2.33
2023-05-24T20:32:29.216Z,2.30
2023-05-24T20:34:57.328Z,2.07
2023-05-24T20:37:25.390Z,2.03
2023-05-24T20:39:53.298Z,1.90
2023-05-24T20:42:22.782Z,2.03
2023-05-24T20:44:51.296Z,2.30
2023-05-24T20:47:19.540Z,2.43
2023-05-24T20:49:47.579Z,2.47
2023-05-24T20:52:16.284Z,2.50
2023-05-24T20:54:44.308Z,2.23
2023-05-24T20:57:12.328Z,2.57
2023-05-24T20:59:42.002Z,2.63
2023-05-24T21:02:09.987Z,2.53
2023-05-24T21:04:38.057Z,2.23
2023-05-24T21:07:07.804Z,2.33
2023-05-24T21:09:36.202Z,1.90
2023-05-24T21:12:04.307Z,2.30
2023-05-24T21:14:32.379Z,2.27
2023-05-24T21:17:01.669Z,2.57
2023-05-24T21:19:29.748Z,2.50
2023-05-24T21:21:57.608Z,2.33
2023-05-24T21:24:25.541Z,2.30
2023-05-24T21:26:53.533Z,2.90
2023-05-24T21:29:21.622Z,3.07
2023-05-24T21:31:49.654Z,2.50
2023-05-24T21:34:19.208Z,2.37
2023-05-24T21:36:47.331Z,2.50
2023-05-24T21:39:15.251Z,2.57
2023-05-24T21:41:43.202Z,2.60
2023-05-24T21:44:11.294Z,2.50
2023-05-24T21:46:39.262Z,2.70
2023-05-24T21:49:07.242Z,2.50
2023-05-24T21:51:36.764Z,2.57
2023-05-24T21:54:05.365Z,2.50
2023-05-24T21:56:33.307Z,2.50
2023-05-24T21:59:01.296Z,2.57
2023-05-24T22:01:29.300Z,2.63
2023-05-24T22:03:57.695Z,2.50
2023-05-24T22:06:25.793Z,2.67
2023-05-24T22:08:55.696Z,2.30
2023-05-24T22:11:23.625Z,2.00
2023-05-24T22:13:52.109Z,2.00
2023-05-24T22:16:20.156Z,2.57
2023-05-24T22:18:48.909Z,2.50
2023-05-24T22:21:18.647Z,2.70
2023-05-24T22:23:46.692Z,2.63
2023-05-24T22:26:17.049Z,2.57
2023-05-24T22:28:52.137Z,2.83
2023-05-24T22:31:21.636Z,2.83
2023-05-24T22:33:49.804Z,3.13
2023-05-24T22:36:18.773Z,2.60
2023-05-24T22:38:46.731Z,2.83
2023-05-24T22:41:16.349Z,2.50
2023-05-24T22:43:44.519Z,3.07
2023-05-24T22:46:12.806Z,2.43
2023-05-24T22:48:41.077Z,2.53
2023-05-24T22:51:09.262Z,2.40
2023-05-24T22:53:39.462Z,2.70
2023-05-24T22:56:10.345Z,2.97
2023-05-24T22:58:40.003Z,2.43
2023-05-24T23:01:07.995Z,2.53
2023-05-24T23:03:36.467Z,2.13
2023-05-24T23:06:05.493Z,2.53
2023-05-24T23:08:34.486Z,2.43
2023-05-24T23:11:10.255Z,2.60
2023-05-24T23:13:42.113Z,2.47
2023-05-24T23:16:10.261Z,2.47
2023-05-24T23:18:42.811Z,2.63
2023-05-24T23:21:11.171Z,2.20
2023-05-24T23:23:39.110Z,2.37
2023-05-24T23:26:07.415Z,2.47
2023-05-24T23:28:35.550Z,3.00
2023-05-24T23:31:05.146Z,2.80
2023-05-24T23:33:33.107Z,3.03
2023-05-24T23:36:01.343Z,3.30
2023-05-24T23:38:29.387Z,3.03
2023-05-24T23:40:57.357Z,3.77
2023-05-24T23:43:25.402Z,3.00
2023-05-24T23:45:53.276Z,2.80
2023-05-24T23:48:23.968Z,4.03
2023-05-24T23:50:54.578Z,3.17
2023-05-24T23:53:23.233Z,3.73
2023-05-24T23:55:51.124Z,3.23
2023-05-24T23:58:19.088Z,2.93
